Time;durP1;ratioP1;P1;durP2;ratioP2;P2;SDS_P1;SDS_P2;PMS_P1;PMS_P2;Temp;Humidity;BMP_temperature;BMP_pressure;BME280_temperature;BME280_humidity;BME280_pressure;Samples;Min_cycle;Max_cycle;Signal;HPM_P1;HPM_P2
2021/04/09 00:02:21;;;;;;;6.43;4.30;;;;;;;0.52;57.15;96812.16;5071376;28;20067;-79
2021/04/09 00:04:48;;;;;;;5.85;4.30;;;;;;;0.50;57.12;96813.28;5096825;28;20039;-79
2021/04/09 00:07:14;;;;;;;6.55;5.00;;;;;;;0.48;57.25;96804.88;5099120;28;20036;-79
2021/04/09 00:09:41;;;;;;;5.28;4.53;;;;;;;0.47;57.29;96803.25;5063434;28;20040;-79
2021/04/09 00:12:08;;;;;;;5.97;4.65;;;;;;;0.43;57.44;96801.94;5080969;28;20028;-79
2021/04/09 00:14:34;;;;;;;6.97;4.97;;;;;;;0.38;57.47;96805.75;5095409;28;20404;-79
2021/04/09 00:17:00;;;;;;;8.52;5.38;;;;;;;0.31;57.59;96794.38;5093605;28;20051;-80
2021/04/09 00:19:27;;;;;;;5.85;4.60;;;;;;;0.26;57.73;96793.19;5097592;28;20047;-79
2021/04/09 00:21:55;;;;;;;6.05;5.03;;;;;;;0.20;57.59;96787.66;5098635;28;20059;-79
2021/04/09 00:24:21;;;;;;;6.00;4.70;;;;;;;0.19;57.78;96792.97;5098151;28;20040;-80
2021/04/09 00:26:48;;;;;;;8.05;6.03;;;;;;;0.16;57.81;96791.47;5081327;28;20476;-79
2021/04/09 00:29:14;;;;;;;6.72;4.88;;;;;;;0.15;57.97;96784.69;5098857;28;20040;-79
2021/04/09 00:31:40;;;;;;;6.28;5.28;;;;;;;0.12;57.89;96784.97;5081036;28;20048;-79
2021/04/09 00:34:07;;;;;;;9.02;5.20;;;;;;;0.10;58.10;96784.31;5096483;28;20044;-79
2021/04/09 00:36:35;;;;;;;6.68;5.90;;;;;;;0.08;58.19;96782.84;5098659;28;20028;-80
2021/04/09 00:39:05;;;;;;;7.18;5.20;;;;;;;0.03;58.00;96778.09;5090963;28;20499;-80
2021/04/09 00:41:33;;;;;;;6.85;5.43;;;;;;;-0.03;58.12;96782.06;5096079;28;20400;-80
2021/04/09 00:43:59;;;;;;;6.45;5.25;;;;;;;-0.07;58.21;96780.72;5087221;28;20055;-80
2021/04/09 00:46:25;;;;;;;7.35;4.70;;;;;;;-0.09;58.33;96767.16;5064228;28;20047;-79
2021/04/09 00:48:51;;;;;;;8.18;5.60;;;;;;;-0.13;58.47;96775.34;5098051;28;20044;-80
2021/04/09 00:51:20;;;;;;;8.82;6.07;;;;;;;-0.15;58.58;96772.09;5098103;28;20044;-79
2021/04/09 00:53:46;;;;;;;7.88;5.78;;;;;;;-0.16;58.44;96779.00;5094329;28;20048;-80
2021/04/09 00:56:16;;;;;;;6.32;5.40;;;;;;;-0.16;58.90;96767.91;5094596;28;20028;-79
2021/04/09 00:58:44;;;;;;;5.85;5.28;;;;;;;-0.17;58.81;96764.50;5078622;28;20048;-80
2021/04/09 01:01:11;;;;;;;7.18;5.82;;;;;;;-0.18;58.86;96762.06;5094719;28;20048;-80
2021/04/09 01:03:38;;;;;;;8.30;6.28;;;;;;;-0.18;59.03;96759.50;5092084;28;20043;-80
2021/04/09 01:06:05;;;;;;;6.35;5.53;;;;;;;-0.20;58.89;96754.47;5095553;28;20472;-80
2021/04/09 01:08:32;;;;;;;6.72;6.05;;;;;;;-0.24;59.14;96748.78;5093953;28;20484;-80
2021/04/09 01:10:58;;;;;;;6.88;5.45;;;;;;;-0.27;59.09;96748.28;5074430;28;20036;-80
2021/04/09 01:13:24;;;;;;;7.13;5.97;;;;;;;-0.31;59.44;96744.38;5095001;28;20480;-79
2021/04/09 01:15:51;;;;;;;7.47;5.97;;;;;;;-0.38;59.27;96741.50;5077535;28;20059;-79
2021/04/09 01:18:30;;;;;;;9.65;6.88;;;;;;;-0.41;59.95;96741.81;5088486;28;20043;-79
2021/04/09 01:20:59;;;;;;;7.60;5.93;;;;;;;-0.45;59.53;96732.75;5068730;28;20472;-79
2021/04/09 01:23:29;;;;;;;6.00;4.97;;;;;;;-0.49;59.78;96726.25;5094360;28;20052;-80
2021/04/09 01:26:13;;;;;;;8.95;5.70;;;;;;;-0.50;61.21;96728.03;5094926;28;20047;-80
2021/04/09 01:28:59;;;;;;;;;;;;;;;-0.50;61.58;96745.25;5094253;28;20043;-80
2021/04/09 01:31:41;;;;;;;7.68;5.63;;;;;;;-0.48;60.33;96736.41;5071631;28;19927;-80
2021/04/09 01:34:08;;;;;;;8.52;5.85;;;;;;;-0.47;59.97;96726.91;5094673;28;20396;-80
2021/04/09 01:36:42;;;;;;;6.35;5.43;;;;;;;-0.46;60.72;96725.97;5095078;28;20126;-79
2021/04/09 01:39:13;;;;;;;9.95;5.38;;;;;;;-0.45;60.28;96725.81;5093317;28;20048;-79
2021/04/09 01:41:40;;;;;;;6.80;5.28;;;;;;;-0.42;60.22;96729.88;5061009;28;20035;-80
2021/04/09 01:44:10;;;;;;;7.00;5.97;;;;;;;-0.41;60.12;96724.59;5095475;28;20044;-80
2021/04/09 01:46:41;;;;;;;5.88;5.25;;;;;;;-0.41;60.32;96721.19;5076834;28;20032;-80
2021/04/09 01:49:10;;;;;;;6.57;5.45;;;;;;;-0.42;60.04;96722.97;5092728;28;20047;-80
2021/04/09 01:51:37;;;;;;;5.25;4.75;;;;;;;-0.44;60.24;96717.16;5085876;28;20044;-79
2021/04/09 01:54:07;;;;;;;8.20;5.53;;;;;;;-0.49;60.64;96719.31;5088187;28;20404;-80
2021/04/09 01:56:35;;;;;;;6.50;5.18;;;;;;;-0.54;60.23;96716.38;5094434;28;20055;-80
2021/04/09 01:59:01;;;;;;;6.65;5.25;;;;;;;-0.57;60.32;96708.09;5065969;28;20039;-79
2021/04/09 02:01:28;;;;;;;6.90;5.45;;;;;;;-0.60;60.54;96698.91;5094013;28;20032;-80
2021/04/09 02:03:55;;;;;;;7.65;5.47;;;;;;;-0.62;60.32;96695.66;5062276;28;20055;-80
2021/04/09 02:06:22;;;;;;;8.30;5.40;;;;;;;-0.64;60.54;96698.38;5071506;28;20040;-80
2021/04/09 02:08:49;;;;;;;6.95;4.78;;;;;;;-0.61;60.71;96697.28;5094483;28;20051;-80
2021/04/09 02:11:16;;;;;;;5.80;5.20;;;;;;;-0.60;60.48;96692.94;5076600;28;20035;-80
2021/04/09 02:13:43;;;;;;;6.13;4.50;;;;;;;-0.62;60.85;96691.31;5093624;28;20044;-79
2021/04/09 02:16:10;;;;;;;6.68;4.88;;;;;;;-0.65;60.90;96691.59;5093882;28;20067;-79
2021/04/09 02:18:36;;;;;;;7.63;5.15;;;;;;;-0.65;60.78;96681.31;5071652;28;20044;-79
2021/04/09 02:21:03;;;;;;;5.18;4.40;;;;;;;-0.62;60.85;96678.44;5094193;28;20039;-80
2021/04/09 02:23:30;;;;;;;6.03;4.88;;;;;;;-0.59;60.94;96679.09;5087599;28;20079;-79
2021/04/09 02:26:00;;;;;;;6.80;4.93;;;;;;;-0.56;61.00;96676.25;5073970;28;20032;-80
2021/04/09 02:28:27;;;;;;;5.30;4.65;;;;;;;-0.54;61.11;96671.78;5093494;28;20051;-79
2021/04/09 02:31:03;;;;;;;6.38;4.88;;;;;;;-0.56;60.89;96669.34;5094475;28;20043;-79
2021/04/09 02:33:31;;;;;;;9.43;5.35;;;;;;;-0.55;61.21;96670.94;5090448;28;20043;-77
2021/04/09 02:35:57;;;;;;;7.70;5.60;;;;;;;-0.54;61.07;96670.00;5094237;28;20055;-78
2021/04/09 02:38:28;;;;;;;5.43;4.43;;;;;;;-0.53;61.10;96670.81;5091743;28;20032;-78
2021/04/09 02:40:58;;;;;;;5.97;5.28;;;;;;;-0.52;61.30;96667.28;5088280;28;20047;-78
2021/04/09 02:43:24;;;;;;;5.97;5.10;;;;;;;-0.52;60.95;96664.72;5090130;28;20039;-79
2021/04/09 02:45:50;;;;;;;7.45;4.90;;;;;;;-0.50;61.26;96667.97;5089112;28;20043;-79
2021/04/09 02:48:18;;;;;;;7.88;5.70;;;;;;;-0.50;61.40;96662.81;5087879;28;20059;-79
2021/04/09 02:50:46;;;;;;;6.47;5.28;;;;;;;-0.49;61.27;96669.56;5082237;28;20040;-79
2021/04/09 02:53:16;;;;;;;7.03;5.00;;;;;;;-0.50;61.18;96671.34;5093295;28;20476;-79
2021/04/09 02:55:47;;;;;;;5.65;4.75;;;;;;;-0.50;61.40;96670.53;5092938;28;20055;-79
2021/04/09 02:58:15;;;;;;;5.80;5.20;;;;;;;-0.54;60.99;96667.44;5091911;28;20067;-78
2021/04/09 03:00:44;;;;;;;8.35;4.82;;;;;;;-0.57;61.37;96661.75;5093863;28;20048;-78
2021/04/09 03:03:11;;;;;;;6.45;5.00;;;;;;;-0.63;61.41;96653.66;5089603;28;20044;-77
2021/04/09 03:05:39;;;;;;;6.28;4.80;;;;;;;-0.66;61.45;96656.50;5092928;28;20051;-77
2021/04/09 03:08:06;;;;;;;6.38;5.07;;;;;;;-0.64;61.29;96656.34;5090318;28;20056;-77
2021/04/09 03:10:33;;;;;;;7.05;5.00;;;;;;;-0.63;61.47;96650.25;5085644;28;20394;-78
2021/04/09 03:13:01;;;;;;;7.05;5.30;;;;;;;-0.65;61.52;96655.56;5092700;28;20046;-77
2021/04/09 03:15:30;;;;;;;6.25;4.88;;;;;;;-0.66;61.42;96646.19;5089562;28;20048;-77
2021/04/09 03:18:03;;;;;;;8.27;5.10;;;;;;;-0.65;61.66;96645.25;5092896;28;20399;-77
2021/04/09 03:20:29;;;;;;;10.05;5.60;;;;;;;-0.66;61.78;96641.03;5090477;28;20036;-77
2021/04/09 03:22:56;;;;;;;9.68;5.57;;;;;;;-0.66;61.57;96640.22;5091414;28;20052;-77
2021/04/09 03:25:22;;;;;;;5.78;4.95;;;;;;;-0.66;61.53;96641.03;5053979;28;20040;-77
2021/04/09 03:27:48;;;;;;;6.50;5.03;;;;;;;-0.66;61.63;96643.63;5090472;28;20043;-77
2021/04/09 03:30:19;;;;;;;6.05;4.75;;;;;;;-0.67;61.82;96642.00;5093322;28;20043;-77
2021/04/09 03:32:49;;;;;;;5.78;4.95;;;;;;;-0.67;61.74;96643.78;5084727;28;20032;-76
2021/04/09 03:35:16;;;;;;;7.18;5.45;;;;;;;-0.66;61.88;96645.38;5093504;28;20043;-77
2021/04/09 03:37:43;;;;;;;7.85;4.75;;;;;;;-0.67;61.61;96648.94;5073821;28;20047;-77
2021/04/09 03:40:10;;;;;;;9.20;5.40;;;;;;;-0.67;61.82;96648.94;5093377;28;20032;-76
2021/04/09 03:42:37;;;;;;;7.00;4.82;;;;;;;-0.66;61.87;96650.53;5087325;28;20040;-76
2021/04/09 03:45:05;;;;;;;6.40;5.20;;;;;;;-0.65;62.00;96652.16;5087612;28;20044;-77
2021/04/09 03:47:32;;;;;;;5.47;4.88;;;;;;;-0.67;61.94;96648.94;5088454;28;20052;-77
2021/04/09 03:49:58;;;;;;;6.40;4.97;;;;;;;-0.65;62.10;96647.81;5090623;28;20039;-77
2021/04/09 03:52:24;;;;;;;8.10;5.70;;;;;;;-0.68;62.17;96642.13;5092566;28;20465;-77
2021/04/09 03:54:51;;;;;;;6.65;5.68;;;;;;;-0.69;62.22;96643.09;5088026;28;20040;-76
2021/04/09 03:57:17;;;;;;;9.10;5.93;;;;;;;-0.71;62.24;96640.66;5092614;28;20036;-79
2021/04/09 03:59:43;;;;;;;7.07;5.88;;;;;;;-0.72;61.94;96646.75;5074593;28;20032;-79
2021/04/09 04:02:10;;;;;;;9.15;5.70;;;;;;;-0.72;62.29;96644.19;5088336;28;20048;-79
2021/04/09 04:04:36;;;;;;;7.40;5.40;;;;;;;-0.72;62.15;96646.75;5069779;28;20062;-79
2021/04/09 04:07:03;;;;;;;10.43;6.32;;;;;;;-0.70;62.08;96646.63;5088479;28;20044;-79
2021/04/09 04:09:30;;;;;;;8.52;5.95;;;;;;;-0.73;61.84;96637.44;5093432;28;20507;-78
2021/04/09 04:11:58;;;;;;;9.00;5.50;;;;;;;-0.74;62.18;96648.66;5091673;28;20036;-78
2021/04/09 04:14:24;;;;;;;8.23;5.60;;;;;;;-0.75;62.16;96644.47;5074191;28;20460;-78
2021/04/09 04:16:50;;;;;;;6.10;5.22;;;;;;;-0.75;62.40;96641.91;5084980;28;20491;-79
2021/04/09 04:19:17;;;;;;;8.75;6.10;;;;;;;-0.77;62.06;96633.50;5067819;28;20048;-78
2021/04/09 04:21:44;;;;;;;10.20;5.75;;;;;;;-0.77;62.23;96633.50;5091896;28;20075;-79
2021/04/09 04:24:11;;;;;;;10.15;5.72;;;;;;;-0.76;62.32;96637.69;5074887;28;20412;-79
2021/04/09 04:26:37;;;;;;;6.30;5.70;;;;;;;-0.76;62.36;96635.13;5074525;28;20040;-79
2021/04/09 04:29:03;;;;;;;9.02;6.00;;;;;;;-0.77;62.45;96632.72;5091952;28;20082;-80
2021/04/09 04:31:30;;;;;;;6.82;5.63;;;;;;;-0.78;62.41;96644.75;5073543;28;20493;-80
2021/04/09 04:33:56;;;;;;;6.65;5.85;;;;;;;-0.79;62.54;96639.75;5091695;28;20382;-79
2021/04/09 04:36:22;;;;;;;6.75;5.38;;;;;;;-0.83;62.58;96645.19;5077690;28;20043;-79
2021/04/09 04:38:48;;;;;;;7.18;5.68;;;;;;;-0.83;62.25;96628.94;5095174;28;20492;-79
2021/04/09 04:41:18;;;;;;;5.85;5.28;;;;;;;-0.84;62.52;96635.84;5096776;28;20044;-79
2021/04/09 04:43:44;;;;;;;8.82;5.18;;;;;;;-0.83;62.42;96642.59;5076648;28;20063;-79
2021/04/09 04:46:11;;;;;;;8.35;6.35;;;;;;;-0.82;62.76;96636.50;5096012;28;20051;-78
2021/04/09 04:48:37;;;;;;;8.35;6.45;;;;;;;-0.81;62.46;96627.03;5074951;28;20423;-79
2021/04/09 04:51:04;;;;;;;8.90;5.82;;;;;;;-0.78;62.77;96626.72;5078560;28;20040;-80
2021/04/09 04:53:31;;;;;;;7.47;6.07;;;;;;;-0.76;62.55;96631.72;5077916;28;20377;-80
2021/04/09 04:55:57;;;;;;;8.30;6.40;;;;;;;-0.75;62.61;96633.38;5096413;28;20043;-80
2021/04/09 04:58:23;;;;;;;7.45;5.97;;;;;;;-0.75;62.82;96643.69;5095714;28;20036;-81
2021/04/09 05:00:50;;;;;;;7.47;5.15;;;;;;;-0.72;62.61;96639.03;5078036;28;20384;-80
2021/04/09 05:03:16;;;;;;;5.85;5.15;;;;;;;-0.68;62.86;96629.25;5095468;28;20476;-81
2021/04/09 05:05:42;;;;;;;6.35;5.40;;;;;;;-0.64;62.53;96635.75;5095985;28;20035;-81
2021/04/09 05:08:08;;;;;;;7.55;5.43;;;;;;;-0.61;62.47;96630.31;5069426;28;20048;-81
2021/04/09 05:10:34;;;;;;;5.97;5.22;;;;;;;-0.58;62.93;96624.88;5095252;28;20399;-82
2021/04/09 05:13:01;;;;;;;8.65;5.70;;;;;;;-0.54;62.80;96633.13;5095489;28;20460;-78
2021/04/09 05:15:27;;;;;;;7.60;5.50;;;;;;;-0.48;62.77;96627.41;5094876;28;20040;-78
2021/04/09 05:17:53;;;;;;;7.30;5.13;;;;;;;-0.41;62.98;96628.44;5095464;28;20407;-79
2021/04/09 05:20:20;;;;;;;5.13;4.45;;;;;;;-0.26;62.83;96631.34;5095394;28;20054;-79
2021/04/09 05:22:47;;;;;;;5.78;4.78;;;;;;;-0.02;63.00;96628.22;5095768;28;20412;-79
2021/04/09 05:25:14;;;;;;;4.82;4.40;;;;;;;0.33;62.90;96635.09;5093661;28;20480;-79
2021/04/09 05:27:41;;;;;;;10.18;5.50;;;;;;;0.65;62.75;96632.91;5094284;28;20480;-78
2021/04/09 05:30:08;;;;;;;6.53;5.00;;;;;;;0.83;62.37;96627.72;5077207;28;20031;-81
2021/04/09 05:32:34;;;;;;;5.70;4.47;;;;;;;0.99;62.16;96626.03;5076858;28;20040;-80
2021/04/09 05:35:00;;;;;;;6.20;5.28;;;;;;;1.15;61.81;96621.91;5094779;28;20465;-80
2021/04/09 05:37:27;;;;;;;6.38;5.28;;;;;;;1.32;61.82;96622.78;5077554;28;20498;-79
2021/04/09 05:39:53;;;;;;;7.63;4.93;;;;;;;1.63;61.75;96620.50;5076122;28;20032;-80
2021/04/09 05:42:19;;;;;;;5.75;4.65;;;;;;;2.10;61.70;96616.53;5091586;28;20054;-79
2021/04/09 05:44:45;;;;;;;6.60;4.55;;;;;;;2.63;61.59;96613.47;5077102;28;20381;-79
2021/04/09 05:47:12;;;;;;;5.18;4.43;;;;;;;3.05;60.79;96616.78;5093773;28;20044;-79
2021/04/09 05:49:38;;;;;;;6.70;4.88;;;;;;;3.38;60.16;96608.91;5060685;28;20036;-79
2021/04/09 05:52:06;;;;;;;6.53;4.78;;;;;;;3.66;59.74;96615.25;5076666;28;20044;-79
2021/04/09 05:54:37;;;;;;;6.65;5.00;;;;;;;3.86;58.55;96602.69;5094933;28;20047;-79
2021/04/09 05:57:04;;;;;;;7.30;5.15;;;;;;;4.07;58.81;96604.66;5094588;28;20051;-79
2021/04/09 05:59:30;;;;;;;7.80;4.97;;;;;;;4.30;58.30;96603.81;5095045;28;20047;-78
2021/04/09 06:01:56;;;;;;;6.10;4.45;;;;;;;4.49;57.87;96594.72;5090960;28;20048;-78
2021/04/09 06:04:22;;;;;;;6.15;4.25;;;;;;;4.58;57.16;96580.72;5076850;28;20051;-78
2021/04/09 06:06:48;;;;;;;6.85;4.72;;;;;;;4.54;56.75;96573.44;5076296;28;20040;-78
2021/04/09 06:09:15;;;;;;;5.65;4.28;;;;;;;4.40;56.39;96569.84;5093988;28;20385;-79
2021/04/09 06:11:41;;;;;;;6.03;4.35;;;;;;;4.37;56.38;96575.38;5075128;28;20059;-80
2021/04/09 06:14:07;;;;;;;8.18;7.13;;;;;;;4.46;56.45;96571.72;5094801;28;20047;-79
2021/04/09 06:16:34;;;;;;;6.63;5.25;;;;;;;4.37;55.94;96580.59;5092900;28;20423;-80
2021/04/09 06:19:01;;;;;;;7.68;4.63;;;;;;;4.19;55.75;96578.28;5075701;28;20048;-78
2021/04/09 06:21:29;;;;;;;7.65;4.57;;;;;;;4.11;55.95;96589.53;5089524;28;20071;-80
2021/04/09 06:23:55;;;;;;;7.97;4.93;;;;;;;4.22;55.59;96590.91;5076478;28;20389;-81
2021/04/09 06:26:21;;;;;;;5.97;4.78;;;;;;;4.32;55.72;96586.28;5094089;28;20047;-79
2021/04/09 06:28:47;;;;;;;6.70;4.80;;;;;;;4.34;55.57;96584.31;5075822;28;20048;-79
2021/04/09 06:31:13;;;;;;;8.35;5.40;;;;;;;4.29;55.12;96578.84;5075992;28;20040;-77
2021/04/09 06:33:40;;;;;;;7.22;5.22;;;;;;;4.18;55.10;96574.06;5093704;28;20055;-78
2021/04/09 06:36:06;;;;;;;6.57;4.88;;;;;;;4.27;55.26;96584.22;5075193;28;20044;-79
2021/04/09 06:38:32;;;;;;;6.22;4.80;;;;;;;4.39;55.19;96583.78;5076625;28;20388;-78
2021/04/09 06:40:59;;;;;;;7.68;4.93;;;;;;;4.47;54.68;96570.72;5075509;28;20036;-78
2021/04/09 06:43:25;;;;;;;8.00;5.32;;;;;;;4.76;54.55;96571.78;5075532;28;20051;-78
2021/04/09 06:45:51;;;;;;;7.75;4.78;;;;;;;4.98;54.06;96563.09;5093354;28;20484;-79
2021/04/09 06:48:17;;;;;;;7.20;5.00;;;;;;;4.98;53.48;96557.09;5092312;28;20035;-79
2021/04/09 06:50:44;;;;;;;6.28;4.50;;;;;;;4.93;53.29;96551.63;5092577;28;20040;-80
2021/04/09 06:53:14;;;;;;;6.63;4.63;;;;;;;4.93;52.35;96552.41;5092962;28;20048;-79
2021/04/09 06:55:44;;;;;;;7.95;4.97;;;;;;;4.98;52.61;96546.72;5089278;28;20499;-77
2021/04/09 06:58:14;;;;;;;5.72;4.50;;;;;;;5.14;53.13;96554.28;5084373;28;20036;-79
2021/04/09 07:00:41;;;;;;;4.45;3.88;;;;;;;5.17;52.92;96540.94;5093327;28;20028;-80
2021/04/09 07:03:10;;;;;;;6.68;4.05;;;;;;;5.06;51.97;96538.78;5072863;28;20064;-79
2021/04/09 07:05:39;;;;;;;4.38;3.95;;;;;;;5.05;52.18;96535.38;5075956;28;20040;-79
2021/04/09 07:08:06;;;;;;;5.63;3.83;;;;;;;5.08;52.70;96534.22;5092527;28;20395;-80
2021/04/09 07:10:32;;;;;;;5.10;3.88;;;;;;;5.03;52.29;96528.75;5075781;28;20032;-80
2021/04/09 07:13:06;;;;;;;4.70;3.97;;;;;;;5.00;52.05;96529.94;5094114;28;20044;-79
2021/04/09 07:15:40;;;;;;;;;;;;;;;5.04;51.19;96517.38;5087747;28;20040;-79
2021/04/09 07:18:07;;;;;;;5.63;3.67;;;;;;;5.03;52.12;96523.56;5091228;28;20389;-80
2021/04/09 07:20:35;;;;;;;5.72;3.70;;;;;;;4.98;52.32;96518.91;5091262;28;20040;-80
2021/04/09 07:23:04;;;;;;;4.15;3.40;;;;;;;5.00;52.26;96519.53;5093708;28;20044;-80
2021/04/09 07:25:35;;;;;;;6.07;3.60;;;;;;;5.05;52.26;96509.41;5093060;28;20051;-79
2021/04/09 07:28:07;;;;;;;5.32;4.43;;;;;;;5.04;51.57;96504.38;5092752;28;20046;-79
2021/04/09 07:30:34;;;;;;;5.55;4.25;;;;;;;5.04;52.15;96517.38;5091651;28;20038;-80
2021/04/09 07:33:05;;;;;;;5.68;3.75;;;;;;;5.05;52.08;96512.00;5081720;28;20036;-80
2021/04/09 07:35:48;;;;;;;4.63;4.10;;;;;;;5.04;51.38;96500.00;5071037;28;20036;-80
2021/04/09 07:38:24;;;;;;;23.20;16.40;;;;;;;5.01;51.49;96494.34;5092724;28;20051;-80
2021/04/09 07:40:52;;;;;;;33.72;30.20;;;;;;;4.99;52.16;96499.72;5088749;28;20040;-80
2021/04/09 07:43:18;;;;;;;15.27;12.20;;;;;;;5.05;52.25;96501.59;5082029;28;20396;-80
2021/04/09 07:45:45;;;;;;;6.93;6.32;;;;;;;5.07;52.09;96498.81;5088907;28;20408;-80
2021/04/09 07:48:11;;;;;;;6.22;5.55;;;;;;;5.13;52.19;96498.09;5064233;28;20036;-80
2021/04/09 07:50:38;;;;;;;7.93;3.90;;;;;;;5.19;51.92;96499.97;5075550;28;20040;-80
2021/04/09 07:53:24;;;;;;;6.10;4.90;;;;;;;5.27;52.06;96501.63;5093064;28;20039;-79
2021/04/09 07:56:06;;;;;;;5.47;4.57;;;;;;;5.29;51.36;96497.06;5093645;28;20039;-80
2021/04/09 07:58:34;;;;;;;5.30;4.65;;;;;;;5.24;51.64;96496.81;5083378;28;20039;-80
2021/04/09 08:01:00;;;;;;;5.35;4.00;;;;;;;5.23;51.85;96493.44;5093152;28;20464;-80
2021/04/09 08:03:34;;;;;;;5.18;4.40;;;;;;;5.32;52.03;96494.13;5093173;28;20041;-80
2021/04/09 08:06:08;;;;;;;6.38;4.63;;;;;;;5.40;52.16;96501.00;5085065;28;20047;-80
2021/04/09 08:08:36;;;;;;;6.53;4.45;;;;;;;5.44;51.72;96497.06;5082748;28;20040;-80
2021/04/09 08:11:28;;;;;;;7.88;6.05;;;;;;;5.42;51.88;96491.22;5066927;28;20399;-80
2021/04/09 08:14:03;;;;;;;6.80;5.60;;;;;;;5.37;51.91;96494.34;5078493;28;20059;-80
2021/04/09 08:16:40;;;;;;;5.75;4.82;;;;;;;5.43;52.13;96495.44;5088675;28;20031;-80
2021/04/09 08:19:17;;;;;;;7.57;4.85;;;;;;;5.48;51.76;96495.66;5086408;28;20032;-80
2021/04/09 08:21:53;;;;;;;4.55;4.10;;;;;;;5.47;51.90;96488.88;5095658;28;20044;-80
2021/04/09 08:24:21;;;;;;;5.55;4.93;;;;;;;5.50;52.07;96496.28;5089727;28;20047;-79
2021/04/09 08:26:51;;;;;;;5.40;4.35;;;;;;;5.56;52.03;96495.56;5096246;28;20063;-79
2021/04/09 08:29:19;;;;;;;5.57;4.05;;;;;;;5.63;52.17;96506.06;5096559;28;20035;-79
2021/04/09 08:31:47;;;;;;;4.97;4.47;;;;;;;5.66;52.02;96506.47;5096156;28;20036;-80
2021/04/09 08:34:17;;;;;;;5.80;4.95;;;;;;;5.66;51.80;96501.25;5096272;28;20465;-80
2021/04/09 08:36:43;;;;;;;14.55;11.02;;;;;;;5.60;51.82;96493.41;5095006;28;20059;-79
2021/04/09 08:39:13;;;;;;;9.27;7.50;;;;;;;5.56;52.15;96489.56;5095801;28;20033;-79
2021/04/09 08:41:44;;;;;;;13.48;8.48;;;;;;;5.57;52.49;96501.59;5096495;28;20024;-79
2021/04/09 08:44:13;;;;;;;6.72;5.55;;;;;;;5.61;52.07;96490.63;5096016;28;20542;-79
2021/04/09 08:46:41;;;;;;;9.10;6.88;;;;;;;5.64;52.15;96492.84;5093981;28;20050;-80
2021/04/09 08:49:10;;;;;;;11.73;8.00;;;;;;;5.65;52.32;96485.84;5095249;28;20047;-79
2021/04/09 08:51:38;;;;;;;5.63;4.47;;;;;;;5.68;52.29;96493.28;5095350;28;20044;-80
2021/04/09 08:54:21;;;;;;;4.82;4.10;;;;;;;5.77;52.01;96488.75;5095315;28;20043;-80
2021/04/09 08:56:48;;;;;;;4.00;3.60;;;;;;;5.88;52.16;96480.47;5096018;28;20460;-80
2021/04/09 08:59:14;;;;;;;4.38;3.40;;;;;;;6.00;51.95;96468.56;5095366;28;20035;-79
2021/04/09 09:01:42;;;;;;;4.53;3.83;;;;;;;6.09;51.88;96470.06;5090900;28;20044;-80
2021/04/09 09:04:20;;;;;;;5.07;3.63;;;;;;;6.22;50.70;96458.13;5091412;28;20040;-80
2021/04/09 09:06:48;;;;;;;4.63;3.58;;;;;;;6.35;51.55;96475.63;5095519;28;20059;-79
2021/04/09 09:09:32;;;;;;;5.10;3.50;;;;;;;6.48;49.63;96449.66;5095353;28;20036;-80
2021/04/09 09:12:01;;;;;;;6.57;3.38;;;;;;;6.60;51.09;96470.78;5094183;28;20464;-79
2021/04/09 09:14:34;;;;;;;3.70;3.22;;;;;;;6.74;49.61;96454.22;5077257;28;20087;-79
2021/04/09 09:17:26;;;;;;;5.63;3.53;;;;;;;6.94;49.16;96438.66;5094772;28;20384;-79
2021/04/09 09:20:19;;;;;;;5.75;3.20;;;;;;;7.15;49.15;96450.78;5093864;28;20495;-79
2021/04/09 09:22:50;;;;;;;4.05;3.65;;;;;;;7.30;49.90;96454.03;5089031;28;20483;-80
2021/04/09 09:25:40;;;;;;;4.47;3.35;;;;;;;7.40;48.40;96432.00;5096068;28;20488;-79
2021/04/09 09:28:15;;;;;;;5.40;3.70;;;;;;;7.47;48.67;96443.22;5093223;28;20052;-80
2021/04/09 09:30:42;;;;;;;5.30;4.05;;;;;;;7.56;49.47;96436.00;5076661;28;20036;-80
2021/04/09 09:33:28;;;;;;;5.32;3.58;;;;;;;7.68;48.01;96418.75;5095775;28;20477;-79
2021/04/09 09:36:03;;;;;;;4.20;3.17;;;;;;;7.83;47.88;96429.84;5086135;28;20028;-79
2021/04/09 09:38:48;;;;;;;6.60;3.72;;;;;;;8.02;47.26;96419.56;5095827;28;20035;-79
2021/04/09 09:41:36;;;;;;;6.97;3.70;;;;;;;8.12;46.90;96412.13;5095388;28;20483;-80
2021/04/09 09:44:23;;;;;;;11.27;4.80;;;;;;;8.22;48.33;96422.16;5084690;28;20044;-81
2021/04/09 09:46:51;;;;;;;4.75;4.10;;;;;;;8.28;47.36;96422.16;5077503;28;20028;-80
2021/04/09 09:49:21;;;;;;;5.50;5.00;;;;;;;8.32;46.57;96410.28;5092649;28;20051;-79
2021/04/09 09:51:48;;;;;;;5.50;3.95;;;;;;;8.46;47.80;96416.34;5095073;28;20044;-82
2021/04/09 09:54:25;;;;;;;8.80;5.88;;;;;;;8.58;45.70;96413.06;5094965;28;20039;-79
2021/04/09 09:56:52;;;;;;;6.95;5.70;;;;;;;8.67;47.26;96417.06;5095007;28;20032;-80
2021/04/09 09:59:20;;;;;;;4.13;3.70;;;;;;;8.78;46.78;96423.44;5094917;28;20464;-81
2021/04/09 10:01:50;;;;;;;6.28;5.50;;;;;;;8.90;46.48;96421.81;5093607;28;20472;-78
2021/04/09 10:04:17;;;;;;;5.78;3.55;;;;;;;9.01;46.29;96425.56;5094785;28;20036;-79
2021/04/09 10:06:52;;;;;;;4.07;3.75;;;;;;;9.13;45.53;96423.91;5094895;28;20377;-79
2021/04/09 10:09:30;;;;;;;5.15;3.72;;;;;;;9.24;43.83;96433.75;5095012;28;20047;-81
2021/04/09 10:11:59;;;;;;;10.60;8.90;;;;;;;9.37;45.25;96443.31;5095317;28;20050;-80
2021/04/09 10:14:29;;;;;;;5.65;4.85;;;;;;;9.49;45.08;96435.59;5094746;28;20028;-81
2021/04/09 10:16:58;;;;;;;5.95;3.60;;;;;;;9.67;44.89;96435.69;5094706;28;20067;-80
2021/04/09 10:19:25;;;;;;;7.05;6.05;;;;;;;9.79;44.78;96427.94;5076309;28;20032;-79
2021/04/09 10:21:52;;;;;;;21.35;19.13;;;;;;;9.92;44.03;96429.66;5076475;28;20495;-80
2021/04/09 10:24:21;;;;;;;4.13;3.53;;;;;;;10.12;43.64;96440.78;5094085;28;20052;-78
2021/04/09 10:26:59;;;;;;;3.67;3.03;;;;;;;10.27;39.88;96422.09;5094383;28;20115;-79
2021/04/09 10:29:28;;;;;;;3.22;3.00;;;;;;;10.40;42.04;96434.31;5094428;28;20032;-80
2021/04/09 10:31:57;;;;;;;5.03;3.25;;;;;;;10.49;41.97;96434.81;5094630;28;20035;-79
2021/04/09 10:34:25;;;;;;;4.72;2.72;;;;;;;10.57;41.54;96440.59;5094878;28;20043;-77
2021/04/09 10:36:54;;;;;;;3.25;2.80;;;;;;;10.66;40.55;96435.84;5093928;28;20039;-78
2021/04/09 10:39:22;;;;;;;2.03;1.80;;;;;;;10.77;39.87;96437.75;5094377;28;20024;-80
2021/04/09 10:41:50;;;;;;;2.80;1.95;;;;;;;10.93;39.89;96443.44;5093592;28;20135;-80
2021/04/09 10:44:31;;;;;;;1.92;1.83;;;;;;;11.09;39.58;96439.41;5094145;28;20047;-80
2021/04/09 10:47:01;;;;;;;4.20;3.90;;;;;;;11.25;39.10;96433.53;5093605;28;20044;-81
2021/04/09 10:49:30;;;;;;;2.33;2.08;;;;;;;11.42;37.92;96430.28;5094209;28;20035;-81
2021/04/09 10:51:59;;;;;;;2.75;1.85;;;;;;;11.60;37.64;96429.44;5076185;28;20043;-80
2021/04/09 10:54:31;;;;;;;4.97;3.63;;;;;;;11.67;34.00;96430.13;5074958;28;20055;-80
2021/04/09 10:57:08;;;;;;;2.58;1.70;;;;;;;11.71;35.31;96423.41;5093976;28;20472;-81
2021/04/09 10:59:47;;;;;;;2.38;1.88;;;;;;;11.87;34.23;96420.13;5094324;28;20472;-78
2021/04/09 11:02:24;;;;;;;1.67;1.50;;;;;;;11.99;33.02;96412.31;5085411;28;20039;-78
2021/04/09 11:04:59;;;;;;;2.05;1.48;;;;;;;12.12;32.16;96411.28;5079178;28;20035;-78
2021/04/09 11:07:46;;;;;;;2.05;1.70;;;;;;;12.27;29.56;96393.22;5094472;28;20039;-78
2021/04/09 11:10:28;;;;;;;2.50;1.25;;;;;;;12.42;31.40;96400.63;5093621;28;20045;-78
2021/04/09 11:12:55;;;;;;;3.90;1.52;;;;;;;12.56;33.45;96407.25;5094425;28;20040;-78
2021/04/09 11:15:21;;;;;;;2.47;2.28;;;;;;;12.73;33.12;96401.28;5093494;28;20055;-78
2021/04/09 11:17:56;;;;;;;3.13;1.35;;;;;;;12.90;29.18;96394.25;5075559;28;20051;-78
2021/04/09 11:20:34;;;;;;;3.03;1.25;;;;;;;13.10;30.07;96391.22;5093784;28;20040;-78
2021/04/09 11:23:04;;;;;;;2.28;1.40;;;;;;;13.29;31.79;96389.22;5093393;28;20059;-78
2021/04/09 11:25:39;;;;;;;1.88;1.58;;;;;;;13.50;29.93;96381.66;5092565;28;20052;-79
2021/04/09 11:28:06;;;;;;;1.40;1.30;;;;;;;13.67;30.98;96385.13;5081842;28;20051;-78
2021/04/09 11:30:37;;;;;;;1.65;1.38;;;;;;;13.83;29.57;96369.53;5093548;28;20396;-79
2021/04/09 11:33:04;;;;;;;1.60;1.20;;;;;;;13.99;30.37;96371.38;5093852;28;20043;-78
2021/04/09 11:35:35;;;;;;;1.70;1.38;;;;;;;14.17;28.61;96367.66;5075512;28;20031;-78
2021/04/09 11:38:06;;;;;;;1.77;1.20;;;;;;;14.44;29.12;96364.34;5093132;28;20032;-79
2021/04/09 11:40:34;;;;;;;1.50;1.40;;;;;;;14.90;29.09;96351.72;5093448;28;20465;-78
2021/04/09 11:43:01;;;;;;;2.22;1.20;;;;;;;15.40;28.24;96348.00;5093423;28;20032;-81
2021/04/09 11:45:45;;;;;;;2.05;1.20;;;;;;;15.59;24.29;96333.38;5075078;28;20040;-79
2021/04/09 11:48:30;;;;;;;1.58;1.10;;;;;;;15.88;24.50;96337.59;5081193;28;20047;-79